This is the latest recevied weather packets stored in our database for station/object VA7IS. If no packets are shown the sender has not sent any weather packets the latest 10 day(s).
| Time | Temp. | Humidity | Pressure | Rain* | Wind** | Luminosity | Snow |
|---|---|---|---|---|---|---|---|
| 1777876804 | 17.22° C | 53% | 1007.7 hPa | 0 mm | - | - | - |
| 1777875304 | 17.22° C | 51% | 1007.7 hPa | 0 mm | - | - | - |
| 1777871704 | 18.33° C | 49% | 1007.7 hPa | 0 mm | - | - | - |
| 1777871404 | 18.33° C | 50% | 1007.8 hPa | 0 mm | - | - | - |
| 1777870804 | 18.33° C | 49% | 1007.8 hPa | 0 mm | - | - | - |
| 1777869904 | 18.89° C | 51% | 1007.8 hPa | 0 mm | - | - | - |
| 1777868704 | 18.89° C | 47% | 1007.8 hPa | 0 mm | - | - | - |
| 1777867804 | 19.44° C | 48% | 1007.8 hPa | 0 mm | - | - | - |
| 1777866603 | 20° C | 49% | 1007.8 hPa | 0 mm | - | - | - |
| 1777866304 | 20° C | 49% | 1007.8 hPa | 0 mm | - | - | - |
| 1777860904 | 23.33° C | 48% | 1008 hPa | 0 mm | - | - | - |
| 1777859105 | 25° C | 43% | 1008.1 hPa | 0 mm | - | - | - |
| 1777855504 | 26.67° C | 38% | 1008.8 hPa | 0 mm | - | - | - |
| 1777854304 | 27.22° C | 36% | 1009 hPa | 0 mm | - | - | - |
| 1777850104 | 27.22° C | 35% | 1009.7 hPa | 0 mm | - | - | - |
| 1777848604 | 27.22° C | 33% | 1010.1 hPa | 0 mm | - | - | - |
| 1777848003 | 26.67° C | 34% | 1010.2 hPa | 0 mm | - | - | - |
| 1777842904 | 25.56° C | 37% | 1011.1 hPa | 0 mm | - | - | - |
| 1777840503 | 24.44° C | 41% | 1011.6 hPa | 0 mm | - | - | - |
| 1777837804 | 24.44° C | 46% | 1012.2 hPa | 0 mm | - | - | - |
| 1777830904 | 21.67° C | 48% | 1013.1 hPa | 0 mm | - | - | - |
| 1777828804 | 21.11° C | 45% | 1013.2 hPa | 0 mm | - | - | - |
| 1777827604 | 20.56° C | 47% | 1013.4 hPa | 0 mm | - | - | - |
| 1777827003 | 20.56° C | 52% | 1013.5 hPa | 0 mm | - | - | - |
| 1777825203 | 18.33° C | 55% | 1013.7 hPa | 0 mm | - | - | - |
* Rain latest hour (hover to see other rain measurements)
** Current wind speed in m/s (hover to see current wind gust speed)